createdAt,value
2022-10-03T00:03:43.940Z,13.05
2022-10-03T00:14:21.578Z,13.02
2022-10-03T00:24:57.647Z,12.93
2022-10-03T00:35:02.881Z,12.84
2022-10-03T00:45:55.896Z,12.82
2022-10-03T00:56:07.925Z,12.79
2022-10-03T01:06:16.657Z,12.75
2022-10-03T01:16:59.377Z,12.73
2022-10-03T01:27:11.110Z,12.63
2022-10-03T01:37:44.211Z,12.60
2022-10-03T01:47:51.910Z,12.61
2022-10-03T01:58:23.287Z,12.60
2022-10-03T02:08:25.494Z,12.56
2022-10-03T02:18:52.992Z,12.50
2022-10-03T02:29:09.090Z,12.44
2022-10-03T02:39:33.838Z,12.44
2022-10-03T02:49:58.400Z,12.45
2022-10-03T03:00:09.791Z,12.41
2022-10-03T03:10:28.224Z,12.40
2022-10-03T03:20:33.794Z,12.29
2022-10-03T03:30:48.859Z,12.27
2022-10-03T03:41:45.588Z,12.26
2022-10-03T03:52:06.570Z,12.23
2022-10-03T04:02:15.455Z,12.17
2022-10-03T04:12:32.473Z,12.11
2022-10-03T04:22:35.452Z,12.14
2022-10-03T04:33:04.747Z,12.11
2022-10-03T04:43:16.141Z,12.08
2022-10-03T04:53:34.891Z,12.05
2022-10-03T05:03:58.879Z,12.00
2022-10-03T05:14:28.538Z,11.99
2022-10-03T05:24:39.780Z,11.98
2022-10-03T05:35:06.736Z,11.96
2022-10-03T05:45:29.714Z,11.95
2022-10-03T05:55:37.998Z,11.92
2022-10-03T06:06:01.748Z,11.95
2022-10-03T06:16:30.731Z,11.99
2022-10-03T06:26:51.031Z,12.00
2022-10-03T06:37:13.037Z,12.04
2022-10-03T06:48:03.377Z,12.06
2022-10-03T06:58:35.404Z,12.00
2022-10-03T07:08:45.817Z,11.99
2022-10-03T07:18:55.383Z,12.09
2022-10-03T07:29:09.856Z,12.08
2022-10-03T07:39:57.288Z,12.06
2022-10-03T07:50:23.534Z,12.03
2022-10-03T08:00:30.212Z,11.96
2022-10-03T08:10:36.210Z,11.99
2022-10-03T08:20:55.666Z,12.12
2022-10-03T08:31:09.995Z,12.17
2022-10-03T08:41:41.114Z,12.43
2022-10-03T08:52:14.693Z,12.38
2022-10-03T09:02:40.363Z,12.69
2022-10-03T09:13:12.959Z,12.97
2022-10-03T09:23:18.669Z,13.17
2022-10-03T09:34:00.026Z,13.18
2022-10-03T09:44:34.836Z,13.50
2022-10-03T09:54:44.468Z,13.82
2022-10-03T10:05:00.251Z,14.11
2022-10-03T10:15:21.458Z,14.16
2022-10-03T10:25:50.565Z,14.55
2022-10-03T10:36:30.764Z,14.78
2022-10-03T10:47:18.694Z,14.86
2022-10-03T10:58:01.811Z,15.03
2022-10-03T11:08:14.045Z,15.11
2022-10-03T11:18:44.377Z,15.17
2022-10-03T11:29:17.724Z,15.23
2022-10-03T11:39:35.626Z,15.31
2022-10-03T11:50:07.031Z,15.32
2022-10-03T12:00:23.486Z,15.19
2022-10-03T12:10:56.497Z,15.50
2022-10-03T12:21:17.347Z,16.21
2022-10-03T12:31:36.656Z,16.22
2022-10-03T12:41:51.240Z,15.93
2022-10-03T12:52:01.077Z,16.17
2022-10-03T13:02:20.378Z,15.98
2022-10-03T13:12:39.759Z,15.70
2022-10-03T13:22:57.292Z,15.68
2022-10-03T13:33:18.804Z,15.41
2022-10-03T13:43:28.689Z,15.30
2022-10-03T13:54:07.628Z,15.38
2022-10-03T14:04:38.131Z,15.57
2022-10-03T14:15:02.404Z,15.95
2022-10-03T14:25:26.883Z,16.35
2022-10-03T14:36:01.966Z,16.12
2022-10-03T14:46:07.077Z,16.15
2022-10-03T14:56:13.634Z,15.94
2022-10-03T15:06:36.129Z,15.81
2022-10-03T15:16:50.099Z,15.68
2022-10-03T15:27:02.206Z,15.39
2022-10-03T15:37:24.761Z,15.07
2022-10-03T15:47:29.998Z,14.73
2022-10-03T15:57:37.286Z,14.44
2022-10-03T16:07:52.135Z,14.15
2022-10-03T16:18:06.248Z,13.97
2022-10-03T16:28:14.812Z,13.76
2022-10-03T16:38:27.149Z,13.51
2022-10-03T16:48:51.917Z,13.20
2022-10-03T16:58:59.049Z,12.90
2022-10-03T17:09:16.728Z,12.58
2022-10-03T17:19:44.843Z,12.32
2022-10-03T17:30:02.514Z,12.04
2022-10-03T17:40:17.035Z,11.80
2022-10-03T17:50:54.548Z,11.58
2022-10-03T18:01:07.148Z,11.40
2022-10-03T18:11:10.729Z,11.16
2022-10-03T18:21:47.017Z,11.02
2022-10-03T18:31:57.837Z,10.85
2022-10-03T18:42:02.724Z,10.72
2022-10-03T18:52:06.054Z,10.56
2022-10-03T19:02:20.507Z,10.40
2022-10-03T19:12:24.211Z,10.25
2022-10-03T19:22:55.534Z,10.13
2022-10-03T19:33:08.874Z,9.95
2022-10-03T19:43:36.472Z,9.79
2022-10-03T19:53:43.941Z,9.69
2022-10-03T20:03:52.995Z,9.58
2022-10-03T20:14:29.453Z,9.45
2022-10-03T20:24:41.507Z,9.39
2022-10-03T20:34:53.137Z,9.19
2022-10-03T20:45:14.655Z,9.07
2022-10-03T20:55:25.952Z,8.87
2022-10-03T21:05:34.799Z,8.79
2022-10-03T21:15:47.829Z,8.68
2022-10-03T21:25:54.790Z,8.60
2022-10-03T21:36:09.637Z,8.52
2022-10-03T21:46:17.451Z,8.39
2022-10-03T21:56:48.774Z,8.26
2022-10-03T22:07:09.714Z,8.14
2022-10-03T22:17:30.701Z,8.13
2022-10-03T22:27:52.039Z,8.09
2022-10-03T22:37:56.507Z,8.09
2022-10-03T22:48:05.207Z,7.95
2022-10-03T22:58:08.806Z,7.85
2022-10-03T23:08:17.020Z,7.77
2022-10-03T23:18:28.421Z,7.69
2022-10-03T23:28:46.128Z,7.53
2022-10-03T23:38:48.465Z,7.41
2022-10-03T23:49:02.369Z,7.31
2022-10-03T23:59:05.235Z,7.22
